createdAt,value
2022-09-15T00:04:20.784Z,12.20
2022-09-15T00:09:26.049Z,12.20
2022-09-15T00:14:31.499Z,12.20
2022-09-15T00:19:36.802Z,12.10
2022-09-15T00:24:42.305Z,12.10
2022-09-15T00:29:48.548Z,12.00
2022-09-15T00:34:53.902Z,12.00
2022-09-15T00:39:59.380Z,12.00
2022-09-15T00:45:07.540Z,11.90
2022-09-15T00:50:21.674Z,11.90
2022-09-15T00:55:36.152Z,11.80
2022-09-15T01:00:44.405Z,11.80
2022-09-15T01:05:54.785Z,11.80
2022-09-15T01:11:02.991Z,11.80
2022-09-15T01:21:59.113Z,11.90
2022-09-15T01:27:37.610Z,12.00
2022-09-15T01:32:56.406Z,12.00
2022-09-15T01:38:19.771Z,12.00
2022-09-15T01:43:27.933Z,12.00
2022-09-15T01:48:35.228Z,12.00
2022-09-15T01:53:41.741Z,12.00
2022-09-15T01:58:48.599Z,12.00
2022-09-15T02:04:06.023Z,12.00
2022-09-15T02:09:20.432Z,12.00
2022-09-15T02:14:33.415Z,12.00
2022-09-15T02:19:42.206Z,12.10
2022-09-15T02:24:51.567Z,12.20
2022-09-15T02:29:59.824Z,12.30
2022-09-15T02:35:08.219Z,12.30
2022-09-15T02:40:14.274Z,12.30
2022-09-15T02:45:20.645Z,12.30
2022-09-15T02:50:26.840Z,12.40
2022-09-15T02:55:32.268Z,12.40
2022-09-15T03:00:39.333Z,12.40
2022-09-15T03:05:45.132Z,12.40
2022-09-15T03:10:50.727Z,12.40
2022-09-15T03:15:56.016Z,12.40
2022-09-15T03:21:02.530Z,12.40
2022-09-15T03:26:09.535Z,12.40
2022-09-15T03:31:14.950Z,12.40
2022-09-15T03:36:20.291Z,12.40
2022-09-15T03:41:28.407Z,12.50
2022-09-15T03:46:33.964Z,12.50
2022-09-15T03:51:39.210Z,12.50
2022-09-15T03:56:46.658Z,12.50
2022-09-15T04:01:53.126Z,12.60
2022-09-15T04:06:58.511Z,12.60
2022-09-15T04:12:04.883Z,12.60
2022-09-15T04:17:11.900Z,12.60
2022-09-15T04:22:25.239Z,12.60
2022-09-15T04:27:41.959Z,12.60
2022-09-15T04:32:50.407Z,12.60
2022-09-15T04:37:55.692Z,12.70
2022-09-15T04:43:01.418Z,12.70
2022-09-15T04:48:06.871Z,12.60
2022-09-15T04:53:14.751Z,12.70
2022-09-15T04:58:20.634Z,12.70
2022-09-15T05:03:27.001Z,12.80
2022-09-15T05:08:32.443Z,12.80
2022-09-15T05:13:39.161Z,12.90
2022-09-15T05:18:47.206Z,13.00
2022-09-15T05:23:55.996Z,13.10
2022-09-15T05:29:01.332Z,13.20
2022-09-15T05:34:07.391Z,13.30
2022-09-15T05:39:14.288Z,13.40
2022-09-15T05:44:21.715Z,13.50
2022-09-15T05:49:26.999Z,13.60
2022-09-15T05:54:33.367Z,13.70
2022-09-15T05:59:42.416Z,13.90
2022-09-15T06:04:47.840Z,14.00
2022-09-15T06:09:53.287Z,14.00
2022-09-15T06:15:00.597Z,14.00
2022-09-15T06:20:07.642Z,14.30
2022-09-15T06:25:13.761Z,14.60
2022-09-15T06:30:19.529Z,14.90
2022-09-15T06:35:24.868Z,15.20
2022-09-15T06:40:31.168Z,15.50
2022-09-15T06:45:36.748Z,15.80
2022-09-15T06:50:42.181Z,16.10
2022-09-15T06:55:47.705Z,16.40
2022-09-15T07:00:54.595Z,16.80
2022-09-15T07:06:00.195Z,17.10
2022-09-15T07:11:06.375Z,17.40
2022-09-15T07:16:14.179Z,17.70
2022-09-15T07:21:21.847Z,17.90
2022-09-15T07:26:31.601Z,18.20
2022-09-15T07:31:39.195Z,18.40
2022-09-15T07:36:47.954Z,18.70
2022-09-15T07:41:54.084Z,18.80
2022-09-15T07:46:59.586Z,18.90
2022-09-15T07:52:05.460Z,19.00
2022-09-15T07:57:11.029Z,19.50
2022-09-15T08:02:21.065Z,19.70
2022-09-15T08:07:33.289Z,19.90
2022-09-15T08:12:40.406Z,20.00
2022-09-15T08:17:47.084Z,20.00
2022-09-15T08:22:57.236Z,20.20
2022-09-15T08:28:08.217Z,20.40
2022-09-15T08:33:41.977Z,20.80
2022-09-15T08:38:58.760Z,21.10
2022-09-15T08:44:44.182Z,21.30
2022-09-15T08:50:34.604Z,20.90
2022-09-15T08:55:49.870Z,20.60
2022-09-15T09:01:10.203Z,21.00
2022-09-15T09:06:22.708Z,21.20
2022-09-15T09:17:40.795Z,21.70
2022-09-15T09:23:07.147Z,22.30
2022-09-15T09:28:33.728Z,22.70
2022-09-15T09:33:48.517Z,22.30
2022-09-15T09:39:05.962Z,22.40
2022-09-15T09:44:18.431Z,22.00
2022-09-15T09:49:31.270Z,21.80
2022-09-15T09:54:37.693Z,21.60
2022-09-15T09:59:51.996Z,21.40
2022-09-15T10:05:08.370Z,21.00
2022-09-15T10:10:25.403Z,21.10
2022-09-15T10:15:37.352Z,20.70
2022-09-15T10:20:51.244Z,20.30
2022-09-15T10:26:00.514Z,19.80
2022-09-15T10:31:13.556Z,19.30
2022-09-15T10:36:32.771Z,19.00
2022-09-15T10:41:40.961Z,18.90
2022-09-15T10:47:05.940Z,18.80
2022-09-15T10:52:16.914Z,18.80
2022-09-15T11:02:42.061Z,19.70
2022-09-15T11:08:09.012Z,19.80
2022-09-15T11:13:17.423Z,19.80
2022-09-15T11:18:34.743Z,19.60
2022-09-15T11:23:52.042Z,19.90
2022-09-15T11:29:06.143Z,20.00
2022-09-15T11:34:26.482Z,19.70
2022-09-15T11:39:39.103Z,19.50
2022-09-15T11:44:48.804Z,19.50
2022-09-15T11:50:03.020Z,19.50
2022-09-15T11:55:38.491Z,19.40
2022-09-15T12:00:50.555Z,19.30
2022-09-15T12:06:13.527Z,19.10
2022-09-15T12:11:22.883Z,19.00
2022-09-15T12:16:29.260Z,19.20
2022-09-15T12:21:48.906Z,19.80
2022-09-15T12:26:54.215Z,19.90
2022-09-15T12:32:20.532Z,19.60
2022-09-15T12:37:28.843Z,19.40
2022-09-15T12:42:36.275Z,19.30
2022-09-15T12:47:58.574Z,19.30
2022-09-15T12:53:06.905Z,19.00
2022-09-15T12:58:18.858Z,18.60
2022-09-15T13:03:41.891Z,18.50
2022-09-15T13:09:10.081Z,18.60
2022-09-15T13:14:36.574Z,18.80
2022-09-15T13:20:15.372Z,19.30
2022-09-15T13:25:24.568Z,19.60
2022-09-15T13:32:41.379Z,19.70
2022-09-15T13:42:07.569Z,19.90
2022-09-15T13:47:26.160Z,19.90
2022-09-15T13:53:13.286Z,19.90
2022-09-15T14:03:53.405Z,20.00
2022-09-15T14:09:05.647Z,19.80
2022-09-15T14:14:13.882Z,19.80
2022-09-15T14:19:41.510Z,19.70
2022-09-15T14:24:47.501Z,19.80
2022-09-15T14:29:55.842Z,19.70
2022-09-15T14:35:03.520Z,19.40
2022-09-15T14:40:29.662Z,19.00
2022-09-15T14:50:55.100Z,19.00
2022-09-15T14:56:08.302Z,19.00
2022-09-15T15:01:38.982Z,19.10
2022-09-15T15:07:10.714Z,19.00
2022-09-15T15:12:41.166Z,18.60
2022-09-15T15:34:51.716Z,18.50
2022-09-15T15:40:04.614Z,18.60
2022-09-15T15:45:31.407Z,18.40
2022-09-15T15:50:36.923Z,18.20
2022-09-15T15:58:29.595Z,17.90
2022-09-15T16:03:35.530Z,17.50
2022-09-15T16:08:43.869Z,17.30
2022-09-15T16:13:49.026Z,16.90
2022-09-15T16:18:56.395Z,16.70
2022-09-15T16:24:03.214Z,16.50
2022-09-15T16:29:08.766Z,16.40
2022-09-15T16:40:11.267Z,16.30
2022-09-15T16:56:10.052Z,16.00
2022-09-15T17:01:25.631Z,15.90
2022-09-15T17:06:31.314Z,15.80
2022-09-15T17:11:38.400Z,15.70
2022-09-15T17:16:45.257Z,15.50
2022-09-15T17:21:52.882Z,15.40
2022-09-15T17:26:58.339Z,15.30
2022-09-15T17:32:03.702Z,15.30
2022-09-15T17:37:09.053Z,15.10
2022-09-15T17:42:15.232Z,15.00
2022-09-15T17:47:22.137Z,14.80
2022-09-15T17:52:28.812Z,14.60
2022-09-15T17:57:34.271Z,14.50
2022-09-15T18:02:44.048Z,14.30
2022-09-15T18:07:50.847Z,14.30
2022-09-15T18:12:58.518Z,14.10
2022-09-15T18:18:08.878Z,13.90
2022-09-15T18:23:17.427Z,13.70
2022-09-15T18:28:25.607Z,13.50
2022-09-15T18:33:31.908Z,13.40
2022-09-15T18:38:37.232Z,13.20
2022-09-15T18:43:43.977Z,13.10
2022-09-15T18:48:50.907Z,13.00
2022-09-15T18:53:58.313Z,12.80
2022-09-15T18:59:03.663Z,12.60
2022-09-15T19:04:09.642Z,12.60
2022-09-15T19:09:19.733Z,12.50
2022-09-15T19:14:25.249Z,12.30
2022-09-15T19:19:30.687Z,12.20
2022-09-15T19:24:45.996Z,12.10
2022-09-15T19:29:51.921Z,12.00
2022-09-15T19:34:59.386Z,11.90
2022-09-15T19:40:08.731Z,11.80
2022-09-15T19:45:14.658Z,11.60
2022-09-15T19:50:20.471Z,11.50
2022-09-15T19:55:27.388Z,11.40
2022-09-15T20:00:32.891Z,11.30
2022-09-15T20:05:38.477Z,11.20
2022-09-15T20:10:46.049Z,11.20
2022-09-15T20:16:04.542Z,11.20
2022-09-15T20:21:17.994Z,11.10
2022-09-15T20:26:19.923Z,11.10
2022-09-15T20:31:26.721Z,11.20
2022-09-15T20:36:35.733Z,11.30
2022-09-15T20:41:42.450Z,11.50
2022-09-15T20:46:47.770Z,11.60
2022-09-15T20:51:54.649Z,11.60
2022-09-15T20:57:00.717Z,11.50
2022-09-15T21:02:07.595Z,11.40
2022-09-15T21:07:13.032Z,11.40
2022-09-15T21:12:18.417Z,11.40
2022-09-15T21:17:23.667Z,11.40
2022-09-15T21:22:28.860Z,11.50
2022-09-15T21:27:34.867Z,11.50
2022-09-15T21:32:40.374Z,11.70
2022-09-15T21:37:45.812Z,11.80
2022-09-15T21:42:51.528Z,12.00
2022-09-15T21:47:57.402Z,12.10
2022-09-15T21:53:02.851Z,12.10
2022-09-15T21:58:08.403Z,12.00
2022-09-15T22:03:14.113Z,12.00
2022-09-15T22:08:19.492Z,12.00
2022-09-15T22:13:24.807Z,12.00
2022-09-15T22:18:30.231Z,11.90
2022-09-15T22:23:36.618Z,11.90
2022-09-15T22:28:42.148Z,11.80
2022-09-15T22:33:48.061Z,11.80
2022-09-15T22:38:54.354Z,11.80
2022-09-15T22:44:12.668Z,11.80
2022-09-15T22:49:18.011Z,11.80
2022-09-15T22:54:23.619Z,11.70
2022-09-15T22:59:28.907Z,11.70
2022-09-15T23:04:34.663Z,11.70
2022-09-15T23:09:40.493Z,11.80
2022-09-15T23:14:46.863Z,11.80
2022-09-15T23:19:52.110Z,11.70
2022-09-15T23:24:57.814Z,11.70
2022-09-15T23:30:02.963Z,11.70
2022-09-15T23:35:09.014Z,11.70
2022-09-15T23:40:14.835Z,11.60
2022-09-15T23:45:20.211Z,11.50
2022-09-15T23:50:26.678Z,11.50
2022-09-15T23:55:32.681Z,11.40
